createdAt,value
2017-05-11T00:01:02.215Z,0
2017-05-11T00:02:14.758Z,0
2017-05-11T00:03:27.274Z,0
2017-05-11T00:04:39.813Z,0
2017-05-11T00:05:52.368Z,0
2017-05-11T00:07:04.590Z,0
2017-05-11T00:08:16.811Z,0
2017-05-11T00:09:29.335Z,0
2017-05-11T00:10:41.825Z,0
2017-05-11T00:11:54.366Z,0
2017-05-11T00:13:06.909Z,0
2017-05-11T00:14:19.458Z,0
2017-05-11T00:15:32.004Z,0
2017-05-11T00:16:44.551Z,0
2017-05-11T00:17:57.095Z,0
2017-05-11T00:19:09.647Z,0
2017-05-11T00:20:22.488Z,0
2017-05-11T00:21:35.043Z,0
2017-05-11T00:22:47.262Z,0
2017-05-11T00:23:59.504Z,0
2017-05-11T00:25:12.025Z,0
2017-05-11T00:26:24.541Z,0
2017-05-11T00:27:36.789Z,0
2017-05-11T00:28:49.030Z,0
2017-05-11T00:30:01.562Z,0
2017-05-11T00:31:14.121Z,0
2017-05-11T00:32:26.372Z,0
2017-05-11T00:33:38.901Z,0
2017-05-11T00:34:51.443Z,0
2017-05-11T00:36:03.984Z,0
2017-05-11T00:37:16.485Z,0
2017-05-11T00:38:29.006Z,0
2017-05-11T00:39:41.501Z,0
2017-05-11T00:40:54.028Z,0
2017-05-11T00:42:06.579Z,0
2017-05-11T00:43:19.139Z,0
2017-05-11T00:44:31.684Z,0
2017-05-11T00:45:44.210Z,0
2017-05-11T00:46:56.683Z,0
2017-05-11T00:48:08.302Z,0
2017-05-11T00:49:20.824Z,0
2017-05-11T00:50:33.339Z,0
2017-05-11T00:51:45.885Z,0
2017-05-11T00:52:58.424Z,0
2017-05-11T00:54:10.954Z,0
2017-05-11T00:55:23.476Z,0
2017-05-11T00:56:36.011Z,0
2017-05-11T00:57:48.524Z,0
2017-05-11T00:59:00.732Z,0
2017-05-11T01:00:13.274Z,0
2017-05-11T01:01:25.853Z,0
2017-05-11T01:02:38.066Z,0
2017-05-11T01:03:50.599Z,0
2017-05-11T01:05:03.157Z,0
2017-05-11T01:06:15.339Z,0
2017-05-11T01:07:27.861Z,0
2017-05-11T01:08:40.408Z,0
2017-05-11T01:09:52.946Z,0
2017-05-11T01:11:05.173Z,0
2017-05-11T01:12:17.395Z,0
2017-05-11T01:13:29.936Z,0
2017-05-11T01:14:42.778Z,0
2017-05-11T01:15:55.306Z,0
2017-05-11T01:17:07.824Z,0
2017-05-11T01:18:20.348Z,0
2017-05-11T01:19:32.842Z,0
2017-05-11T01:20:45.379Z,0
2017-05-11T01:21:57.871Z,0
2017-05-11T01:23:10.422Z,0
2017-05-11T01:24:22.674Z,0
2017-05-11T01:25:35.220Z,0
2017-05-11T01:26:47.443Z,0
2017-05-11T01:27:59.963Z,0
2017-05-11T01:29:12.490Z,0
2017-05-11T01:30:25.035Z,0
2017-05-11T01:31:37.556Z,0
2017-05-11T01:32:49.502Z,0
2017-05-11T01:34:01.747Z,0
2017-05-11T01:35:14.291Z,0
2017-05-11T01:36:26.809Z,0
2017-05-11T01:37:39.380Z,0
2017-05-11T01:38:51.903Z,0
2017-05-11T01:40:04.447Z,0
2017-05-11T01:41:16.647Z,0
2017-05-11T01:42:29.184Z,0
2017-05-11T01:43:41.684Z,0
2017-05-11T01:44:53.900Z,0
2017-05-11T01:46:06.102Z,0
2017-05-11T01:47:18.898Z,0
2017-05-11T01:48:31.418Z,0
2017-05-11T01:49:43.958Z,0
2017-05-11T01:50:56.185Z,0
2017-05-11T01:52:08.715Z,0
2017-05-11T01:53:21.247Z,0
2017-05-11T01:54:33.794Z,0
2017-05-11T01:55:46.347Z,0
2017-05-11T01:56:58.884Z,0
2017-05-11T01:58:11.108Z,0
2017-05-11T01:59:23.631Z,0
2017-05-11T02:00:36.127Z,0
2017-05-11T02:01:48.652Z,0
2017-05-11T02:03:01.221Z,0
2017-05-11T02:04:13.735Z,0
2017-05-11T02:05:26.256Z,0
2017-05-11T02:06:38.798Z,0
2017-05-11T02:07:51.328Z,0
2017-05-11T02:09:03.865Z,0
2017-05-11T02:10:16.094Z,0
2017-05-11T02:11:28.618Z,0
2017-05-11T02:12:41.155Z,0
2017-05-11T02:13:53.674Z,0
2017-05-11T02:15:05.882Z,0
2017-05-11T02:16:18.441Z,0
2017-05-11T02:17:30.989Z,0
2017-05-11T02:18:43.491Z,0
2017-05-11T02:19:56.015Z,0
2017-05-11T02:21:08.236Z,0
2017-05-11T02:22:20.495Z,0
2017-05-11T02:23:33.056Z,0
2017-05-11T02:24:45.575Z,0
2017-05-11T02:25:57.192Z,0
2017-05-11T02:27:09.717Z,0
2017-05-11T02:28:22.283Z,0
2017-05-11T02:29:34.779Z,0
2017-05-11T02:30:47.600Z,0
2017-05-11T02:32:00.126Z,0
2017-05-11T02:33:12.670Z,0
2017-05-11T02:34:25.193Z,0
2017-05-11T02:35:37.414Z,0
2017-05-11T02:36:49.621Z,0
2017-05-11T02:38:02.128Z,0
2017-05-11T02:39:14.647Z,0
2017-05-11T02:40:27.195Z,0
2017-05-11T02:41:39.705Z,0
2017-05-11T02:42:51.629Z,0
2017-05-11T02:44:04.155Z,0
2017-05-11T02:45:16.369Z,0
2017-05-11T02:46:28.889Z,0
2017-05-11T02:47:41.443Z,0
2017-05-11T02:48:53.970Z,0
2017-05-11T02:50:06.489Z,0
2017-05-11T02:51:19.007Z,0
2017-05-11T02:52:31.522Z,0
2017-05-11T02:53:44.023Z,0
2017-05-11T02:54:56.572Z,0
2017-05-11T02:56:09.094Z,0
2017-05-11T02:57:21.631Z,0
2017-05-11T02:58:33.856Z,0
2017-05-11T02:59:46.377Z,0
2017-05-11T03:00:58.601Z,0
2017-05-11T03:02:10.825Z,0
2017-05-11T03:03:23.618Z,0
2017-05-11T03:04:36.157Z,0
2017-05-11T03:05:48.666Z,0
2017-05-11T03:07:01.170Z,5
2017-05-11T03:08:13.671Z,5
2017-05-11T03:09:26.212Z,5
2017-05-11T03:10:38.742Z,5
2017-05-11T03:11:51.294Z,5
2017-05-11T03:13:03.536Z,5
2017-05-11T03:14:16.081Z,5
2017-05-11T03:15:28.604Z,10
2017-05-11T03:16:41.121Z,10
2017-05-11T03:17:53.347Z,10
2017-05-11T03:19:05.868Z,10
2017-05-11T03:20:18.414Z,10
2017-05-11T03:21:30.657Z,15
2017-05-11T03:22:42.921Z,15
2017-05-11T03:23:55.449Z,15
2017-05-11T03:25:07.670Z,20
2017-05-11T03:26:20.179Z,20
2017-05-11T03:27:32.738Z,25
2017-05-11T03:28:45.250Z,25
2017-05-11T03:29:57.803Z,25
2017-05-11T03:31:10.028Z,30
2017-05-11T03:32:22.562Z,30
2017-05-11T03:33:34.809Z,35
2017-05-11T03:34:47.355Z,35
2017-05-11T03:35:59.558Z,40
2017-05-11T03:37:12.076Z,40
2017-05-11T03:38:24.603Z,45
2017-05-11T03:39:37.123Z,50
2017-05-11T03:40:49.655Z,50
2017-05-11T03:42:02.205Z,55
2017-05-11T03:43:14.755Z,60
2017-05-11T03:44:27.294Z,60
2017-05-11T03:45:39.842Z,65
2017-05-11T03:46:52.343Z,65
2017-05-11T03:48:04.909Z,65
2017-05-11T03:49:17.158Z,70
2017-05-11T03:50:29.680Z,75
2017-05-11T03:51:42.521Z,75
2017-05-11T03:52:54.750Z,80
2017-05-11T03:54:06.992Z,85
2017-05-11T03:55:19.496Z,90
2017-05-11T03:56:32.006Z,90
2017-05-11T03:57:44.550Z,95
2017-05-11T03:58:57.076Z,100
2017-05-11T04:00:09.590Z,100
2017-05-11T04:01:22.101Z,105
2017-05-11T04:02:34.639Z,105
2017-05-11T04:03:47.193Z,110
2017-05-11T04:04:59.749Z,110
2017-05-11T04:06:11.995Z,110
2017-05-11T04:07:24.540Z,115
2017-05-11T04:08:37.398Z,115
2017-05-11T04:09:49.940Z,120
2017-05-11T04:11:02.460Z,120
2017-05-11T04:12:14.703Z,125
2017-05-11T04:13:27.254Z,125
2017-05-11T04:14:39.473Z,130
2017-05-11T04:15:52.015Z,130
2017-05-11T04:17:04.243Z,135
2017-05-11T04:18:16.461Z,140
2017-05-11T04:19:29.287Z,140
2017-05-11T04:20:41.802Z,145
2017-05-11T04:21:54.324Z,145
2017-05-11T04:23:06.524Z,150
2017-05-11T04:24:19.041Z,155
2017-05-11T04:25:31.554Z,160
2017-05-11T04:26:43.779Z,160
2017-05-11T04:27:56.004Z,165
2017-05-11T04:29:08.542Z,170
2017-05-11T04:30:20.807Z,175
2017-05-11T04:31:33.341Z,175
2017-05-11T04:32:45.583Z,180
2017-05-11T04:33:58.104Z,185
2017-05-11T04:35:10.309Z,185
2017-05-11T04:36:22.804Z,195
2017-05-11T04:37:35.346Z,200
2017-05-11T04:38:47.863Z,205
2017-05-11T04:40:00.104Z,210
2017-05-11T04:41:12.633Z,220
2017-05-11T04:42:25.128Z,225
2017-05-11T04:43:37.343Z,230
2017-05-11T04:44:49.873Z,240
2017-05-11T04:46:02.071Z,245
2017-05-11T04:47:14.620Z,255
2017-05-11T04:48:26.859Z,260
2017-05-11T04:49:39.406Z,265
2017-05-11T04:50:51.931Z,270
2017-05-11T04:52:04.742Z,275
2017-05-11T04:53:16.989Z,280
2017-05-11T04:54:29.514Z,285
2017-05-11T04:55:41.727Z,295
2017-05-11T04:56:54.231Z,300
2017-05-11T04:58:06.757Z,305
2017-05-11T04:59:19.302Z,310
2017-05-11T05:00:31.849Z,315
2017-05-11T05:01:44.389Z,320
2017-05-11T05:02:56.914Z,320
2017-05-11T05:04:09.455Z,320
2017-05-11T05:05:21.694Z,325
2017-05-11T05:06:34.227Z,325
2017-05-11T05:07:46.764Z,325
2017-05-11T05:08:59.290Z,330
2017-05-11T05:10:11.542Z,330
2017-05-11T05:11:24.073Z,335
2017-05-11T05:12:36.280Z,340
2017-05-11T05:13:48.803Z,345
2017-05-11T05:15:01.024Z,345
2017-05-11T05:16:13.244Z,340
2017-05-11T05:17:25.480Z,340
2017-05-11T05:18:37.728Z,340
2017-05-11T05:19:50.271Z,340
2017-05-11T05:21:02.802Z,345
2017-05-11T05:22:15.020Z,355
2017-05-11T05:23:27.522Z,350
2017-05-11T05:24:40.343Z,350
2017-05-11T05:25:52.886Z,355
2017-05-11T05:27:05.449Z,350
2017-05-11T05:28:17.678Z,350
2017-05-11T05:29:30.199Z,355
2017-05-11T05:30:42.746Z,355
2017-05-11T05:31:54.966Z,365
2017-05-11T05:33:07.225Z,370
2017-05-11T05:34:19.429Z,370
2017-05-11T05:35:31.949Z,370
2017-05-11T05:36:44.474Z,375
2017-05-11T05:37:56.996Z,370
2017-05-11T05:39:09.562Z,375
2017-05-11T05:40:21.804Z,370
2017-05-11T05:41:34.354Z,370
2017-05-11T05:42:46.874Z,380
2017-05-11T05:43:59.445Z,385
2017-05-11T05:45:11.688Z,385
2017-05-11T05:46:24.237Z,390
2017-05-11T05:47:36.764Z,395
2017-05-11T05:48:49.310Z,405
2017-05-11T05:50:01.850Z,410
2017-05-11T05:51:14.401Z,410
2017-05-11T05:52:26.975Z,410
2017-05-11T05:53:39.217Z,415
2017-05-11T05:54:51.734Z,410
2017-05-11T05:56:04.263Z,415
2017-05-11T05:57:16.475Z,420
2017-05-11T05:58:28.997Z,420
2017-05-11T05:59:41.236Z,450
2017-05-11T06:00:53.784Z,500
2017-05-11T06:02:06.302Z,465
2017-05-11T06:03:18.548Z,435
2017-05-11T06:04:31.111Z,445
2017-05-11T06:05:43.654Z,475
2017-05-11T06:06:55.898Z,475
2017-05-11T06:08:08.489Z,540
2017-05-11T06:09:21.012Z,580
2017-05-11T06:10:33.260Z,520
2017-05-11T06:11:45.521Z,565
2017-05-11T06:12:58.073Z,575
2017-05-11T06:14:10.011Z,625
2017-05-11T06:15:22.557Z,655
2017-05-11T06:16:35.107Z,730
2017-05-11T06:17:47.656Z,805
2017-05-11T06:19:00.498Z,905
2017-05-11T06:20:12.423Z,790
2017-05-11T06:21:24.975Z,730
2017-05-11T06:22:37.510Z,670
2017-05-11T06:23:50.053Z,830
2017-05-11T06:25:02.007Z,1295
2017-05-11T06:26:14.231Z,1515
2017-05-11T06:27:26.494Z,1515
2017-05-11T06:28:39.049Z,1475
2017-05-11T06:29:51.611Z,1520
2017-05-11T06:31:04.166Z,1515
2017-05-11T06:32:16.724Z,1480
2017-05-11T06:33:29.271Z,1435
2017-05-11T06:34:41.824Z,1470
2017-05-11T06:35:54.348Z,1505
2017-05-11T06:37:06.884Z,1570
2017-05-11T06:38:19.137Z,1525
2017-05-11T06:39:31.379Z,1635
2017-05-11T06:40:44.178Z,1675
2017-05-11T06:41:56.402Z,1720
2017-05-11T06:43:08.646Z,1720
2017-05-11T06:44:20.888Z,1605
2017-05-11T06:45:33.442Z,1740
2017-05-11T06:46:45.983Z,1775
2017-05-11T06:47:58.533Z,1730
2017-05-11T06:49:11.096Z,1715
2017-05-11T06:50:23.647Z,1740
2017-05-11T06:51:36.199Z,1785
2017-05-11T06:52:48.441Z,1785
2017-05-11T06:54:01.009Z,1795
2017-05-11T06:55:13.558Z,1755
2017-05-11T06:56:25.506Z,1865
2017-05-11T06:57:38.076Z,1835
2017-05-11T06:58:50.649Z,1735
2017-05-11T07:00:03.217Z,1800
2017-05-11T07:01:15.458Z,1880
2017-05-11T07:02:27.958Z,1890
2017-05-11T07:03:40.532Z,2005
2017-05-11T07:04:53.074Z,2015
2017-05-11T07:06:05.322Z,2100
2017-05-11T07:07:16.688Z,2060
2017-05-11T07:08:29.188Z,2070
2017-05-11T07:09:41.737Z,2095
2017-05-11T07:10:53.994Z,2065
2017-05-11T07:12:06.524Z,1675
2017-05-11T07:13:19.069Z,1730
2017-05-11T07:14:31.591Z,1745
2017-05-11T07:15:43.839Z,2040
2017-05-11T07:16:56.402Z,1910
2017-05-11T07:18:08.956Z,2195
2017-05-11T07:19:21.219Z,2085
2017-05-11T07:20:33.786Z,2150
2017-05-11T07:21:46.037Z,2120
2017-05-11T07:22:58.585Z,2125
2017-05-11T07:24:10.539Z,2000
2017-05-11T07:25:22.474Z,1950
2017-05-11T07:26:35.028Z,1850
2017-05-11T07:27:47.598Z,1995
2017-05-11T07:29:00.140Z,2050
2017-05-11T07:30:12.090Z,2025
2017-05-11T07:31:24.015Z,2070
2017-05-11T07:32:36.558Z,2015
2017-05-11T07:33:49.096Z,2055
2017-05-11T07:35:01.621Z,2025
2017-05-11T07:36:13.858Z,2185
2017-05-11T07:37:26.390Z,2310
2017-05-11T07:38:38.916Z,2340
2017-05-11T07:39:51.504Z,2415
2017-05-11T07:41:04.051Z,2380
2017-05-11T07:42:16.288Z,2375
2017-05-11T07:43:28.809Z,2270
2017-05-11T07:44:41.383Z,2085
2017-05-11T07:45:53.608Z,2135
2017-05-11T07:47:05.831Z,2360
2017-05-11T07:48:18.054Z,2490
2017-05-11T07:49:30.598Z,2480
2017-05-11T07:50:42.846Z,2365
2017-05-11T07:51:55.394Z,2490
2017-05-11T07:53:07.938Z,2675
2017-05-11T07:54:20.205Z,2545
2017-05-11T07:55:32.756Z,2550
2017-05-11T07:56:45.298Z,2540
2017-05-11T07:57:57.539Z,2700
2017-05-11T07:59:10.105Z,2720
2017-05-11T08:00:22.366Z,2765
2017-05-11T08:01:34.923Z,2715
2017-05-11T08:02:47.498Z,2405
2017-05-11T08:03:59.727Z,2450
2017-05-11T08:05:11.996Z,2500
2017-05-11T08:06:23.967Z,2595
2017-05-11T08:07:36.515Z,2650
2017-05-11T08:08:48.791Z,2550
2017-05-11T08:10:01.354Z,2705
2017-05-11T08:11:13.333Z,2890
2017-05-11T08:12:25.887Z,2650
2017-05-11T08:13:38.457Z,2560
2017-05-11T08:14:50.764Z,2735
2017-05-11T08:16:03.327Z,2830
2017-05-11T08:17:15.584Z,2795
2017-05-11T08:18:28.150Z,3135
2017-05-11T08:19:40.394Z,2995
2017-05-11T08:20:52.968Z,2970
2017-05-11T08:22:04.617Z,2625
2017-05-11T08:23:16.892Z,1395
2017-05-11T08:24:29.458Z,670
2017-05-11T08:25:41.728Z,1205
2017-05-11T08:26:53.967Z,1730
2017-05-11T08:28:06.521Z,1970
2017-05-11T08:29:19.082Z,1995
2017-05-11T08:30:31.332Z,2100
2017-05-11T08:31:43.596Z,2305
2017-05-11T08:32:56.141Z,2455
2017-05-11T08:34:08.695Z,2610
2017-05-11T08:35:20.598Z,2610
2017-05-11T08:36:32.846Z,2705
2017-05-11T08:37:45.408Z,2845
2017-05-11T08:38:57.929Z,2490
2017-05-11T08:40:10.492Z,1080
2017-05-11T08:41:22.726Z,1135
2017-05-11T08:42:35.295Z,2670
2017-05-11T08:43:47.867Z,3140
2017-05-11T08:45:00.157Z,3135
2017-05-11T08:46:12.738Z,3050
2017-05-11T08:47:24.976Z,3055
2017-05-11T08:48:37.514Z,3015
2017-05-11T08:49:50.089Z,3005
2017-05-11T08:51:02.033Z,3355
2017-05-11T08:52:14.336Z,3395
2017-05-11T08:53:26.576Z,3080
2017-05-11T08:54:38.847Z,3000
2017-05-11T08:55:51.115Z,3335
2017-05-11T08:57:03.671Z,3270
2017-05-11T08:58:15.292Z,3145
2017-05-11T08:59:27.861Z,2910
2017-05-11T09:00:40.406Z,2845
2017-05-11T09:01:52.944Z,2775
2017-05-11T09:03:05.529Z,2880
2017-05-11T09:04:17.767Z,2855
2017-05-11T09:05:29.710Z,2945
2017-05-11T09:06:42.266Z,2915
2017-05-11T09:07:54.823Z,2900
2017-05-11T09:09:07.402Z,2760
2017-05-11T09:10:19.942Z,2680
2017-05-11T09:11:32.469Z,2495
2017-05-11T09:12:44.994Z,2695
2017-05-11T09:13:57.219Z,2755
2017-05-11T09:15:09.773Z,2535
2017-05-11T09:16:21.997Z,2595
2017-05-11T09:17:34.241Z,2500
2017-05-11T09:18:46.797Z,2410
2017-05-11T09:19:59.358Z,1405
2017-05-11T09:21:11.612Z,790
2017-05-11T09:22:23.578Z,1495
2017-05-11T09:23:36.145Z,1905
2017-05-11T09:24:48.700Z,1685
2017-05-11T09:26:01.237Z,1640
2017-05-11T09:27:13.498Z,1535
2017-05-11T09:28:25.441Z,1455
2017-05-11T09:29:38.003Z,1465
2017-05-11T09:30:50.554Z,1520
2017-05-11T09:32:02.801Z,1605
2017-05-11T09:33:14.762Z,1710
2017-05-11T09:34:27.016Z,1860
2017-05-11T09:35:38.962Z,2170
2017-05-11T09:36:51.512Z,2325
2017-05-11T09:38:04.085Z,2505
2017-05-11T09:39:16.629Z,2615
2017-05-11T09:40:29.166Z,2915
2017-05-11T09:41:41.717Z,2990
2017-05-11T09:42:54.267Z,3130
2017-05-11T09:44:06.855Z,3610
2017-05-11T09:45:19.406Z,3610
2017-05-11T09:46:31.668Z,3360
2017-05-11T09:47:43.939Z,2095
2017-05-11T09:48:56.494Z,1560
2017-05-11T09:50:08.746Z,2810
2017-05-11T09:51:21.286Z,3840
2017-05-11T09:52:33.847Z,3705
2017-05-11T09:53:46.401Z,2595
2017-05-11T09:54:58.967Z,1245
2017-05-11T09:56:11.535Z,865
2017-05-11T09:57:23.816Z,1905
2017-05-11T09:58:36.364Z,3350
2017-05-11T09:59:48.623Z,4015
2017-05-11T10:01:00.853Z,3825
2017-05-11T10:02:12.778Z,3865
2017-05-11T10:03:25.371Z,3680
2017-05-11T10:04:37.634Z,3815
2017-05-11T10:05:50.202Z,3615
2017-05-11T10:07:02.161Z,3865
2017-05-11T10:08:14.733Z,4135
2017-05-11T10:09:27.024Z,3810
2017-05-11T10:10:39.249Z,4285
2017-05-11T10:11:51.794Z,4005
2017-05-11T10:13:04.337Z,4005
2017-05-11T10:14:15.958Z,4120
2017-05-11T10:15:28.224Z,3930
2017-05-11T10:16:40.791Z,3965
2017-05-11T10:17:53.640Z,4045
2017-05-11T10:19:06.193Z,4095
2017-05-11T10:20:18.753Z,4055
2017-05-11T10:21:31.056Z,3890
2017-05-11T10:22:43.605Z,3960
2017-05-11T10:23:56.149Z,4030
2017-05-11T10:25:08.411Z,3980
2017-05-11T10:26:20.389Z,4120
2017-05-11T10:27:32.916Z,4055
2017-05-11T10:28:45.157Z,4000
2017-05-11T10:29:57.721Z,4190
2017-05-11T10:31:10.271Z,4265
2017-05-11T10:32:22.224Z,3995
2017-05-11T10:33:34.465Z,4085
2017-05-11T10:34:47.021Z,4140
2017-05-11T10:35:59.600Z,4240
2017-05-11T10:37:12.204Z,4245
2017-05-11T10:38:24.754Z,4020
2017-05-11T10:39:37.296Z,3970
2017-05-11T10:40:49.842Z,3840
2017-05-11T10:42:02.107Z,3715
2017-05-11T10:43:14.387Z,3825
2017-05-11T10:44:26.631Z,3720
2017-05-11T10:45:39.192Z,3850
2017-05-11T10:46:51.772Z,4200
2017-05-11T10:48:04.323Z,4070
2017-05-11T10:49:16.589Z,4020
2017-05-11T10:50:28.853Z,4030
2017-05-11T10:51:41.407Z,4055
2017-05-11T10:52:53.953Z,4070
2017-05-11T10:54:06.520Z,4155
2017-05-11T10:55:18.495Z,4160
2017-05-11T10:56:31.062Z,4040
2017-05-11T10:57:43.633Z,3925
2017-05-11T10:58:56.199Z,3855
2017-05-11T11:00:08.774Z,3830
2017-05-11T11:01:20.768Z,3845
2017-05-11T11:02:33.037Z,3850
2017-05-11T11:03:45.343Z,4155
2017-05-11T11:04:57.889Z,4060
2017-05-11T11:06:10.473Z,3980
2017-05-11T11:07:23.060Z,3775
2017-05-11T11:08:35.617Z,3695
2017-05-11T11:09:48.196Z,3690
2017-05-11T11:11:00.489Z,3585
2017-05-11T11:12:12.443Z,3805
2017-05-11T11:13:24.709Z,3685
2017-05-11T11:14:37.301Z,3525
2017-05-11T11:15:49.248Z,3545
2017-05-11T11:17:01.793Z,3510
2017-05-11T11:18:14.317Z,3370
2017-05-11T11:19:26.836Z,3370
2017-05-11T11:20:39.407Z,3420
2017-05-11T11:21:51.358Z,3605
2017-05-11T11:23:03.923Z,3495
2017-05-11T11:24:16.175Z,3425
2017-05-11T11:25:28.756Z,3365
2017-05-11T11:26:41.340Z,3215
2017-05-11T11:27:53.983Z,2985
2017-05-11T11:29:06.555Z,2750
2017-05-11T11:30:18.829Z,2690
2017-05-11T11:31:31.127Z,2715
2017-05-11T11:32:43.696Z,2755
2017-05-11T11:33:56.291Z,2705
2017-05-11T11:35:08.849Z,2650
2017-05-11T11:36:21.124Z,2490
2017-05-11T11:37:33.676Z,2600
2017-05-11T11:38:46.220Z,2395
2017-05-11T11:39:58.797Z,2285
2017-05-11T11:41:11.062Z,2200
2017-05-11T11:42:23.611Z,2225
2017-05-11T11:43:35.871Z,2125
2017-05-11T11:44:48.440Z,2260
2017-05-11T11:46:00.966Z,2090
2017-05-11T11:47:13.545Z,2270
2017-05-11T11:48:25.811Z,2085
2017-05-11T11:49:38.064Z,1875
2017-05-11T11:50:50.605Z,2230
2017-05-11T11:52:02.944Z,2135
2017-05-11T11:53:14.892Z,1755
2017-05-11T11:54:27.173Z,2045
2017-05-11T11:55:39.442Z,2600
2017-05-11T11:56:51.400Z,2985
2017-05-11T11:58:04.034Z,3250
2017-05-11T11:59:16.307Z,3490
2017-05-11T12:00:28.596Z,3845
2017-05-11T12:01:41.142Z,4100
2017-05-11T12:02:53.389Z,4110
2017-05-11T12:04:05.344Z,4420
2017-05-11T12:05:17.326Z,4495
2017-05-11T12:06:29.881Z,4135
2017-05-11T12:07:42.480Z,4365
2017-05-11T12:08:55.064Z,4330
2017-05-11T12:10:07.663Z,4020
2017-05-11T12:11:19.889Z,3870
2017-05-11T12:12:32.483Z,4020
2017-05-11T12:13:45.033Z,3995
2017-05-11T12:14:57.607Z,3580
2017-05-11T12:16:09.877Z,3240
2017-05-11T12:17:22.417Z,3320
2017-05-11T12:18:34.961Z,3800
2017-05-11T12:19:47.210Z,3970
2017-05-11T12:20:59.505Z,4105
2017-05-11T12:22:11.744Z,4745
2017-05-11T12:23:24.021Z,5540
2017-05-11T12:24:35.986Z,5855
2017-05-11T12:25:48.554Z,6450
2017-05-11T12:27:01.149Z,6395
2017-05-11T12:28:13.723Z,6465
2017-05-11T12:29:26.307Z,6865
2017-05-11T12:30:38.890Z,6035
2017-05-11T12:31:51.158Z,5820
2017-05-11T12:33:03.488Z,5880
2017-05-11T12:34:16.049Z,6580
2017-05-11T12:35:28.623Z,5975
2017-05-11T12:36:41.176Z,5735
2017-05-11T12:37:53.424Z,6155
2017-05-11T12:39:05.705Z,5590
2017-05-11T12:40:17.665Z,5430
2017-05-11T12:41:30.250Z,5805
2017-05-11T12:42:42.871Z,6090
2017-05-11T12:43:55.428Z,6020
2017-05-11T12:45:07.701Z,6105
2017-05-11T12:46:20.266Z,5880
2017-05-11T12:47:32.830Z,5645
2017-05-11T12:48:45.383Z,5865
2017-05-11T12:49:57.629Z,5370
2017-05-11T12:51:09.920Z,4500
2017-05-11T12:52:22.501Z,4945
2017-05-11T12:53:35.084Z,5305
2017-05-11T12:54:47.639Z,5115
2017-05-11T12:55:59.604Z,5175
2017-05-11T12:57:12.160Z,5160
2017-05-11T12:58:24.171Z,5125
2017-05-11T12:59:36.738Z,5120
2017-05-11T13:00:49.317Z,4985
2017-05-11T13:02:01.595Z,4930
2017-05-11T13:03:13.875Z,5030
2017-05-11T13:04:26.435Z,5090
2017-05-11T13:05:38.728Z,4895
2017-05-11T13:06:50.988Z,5000
2017-05-11T13:08:03.547Z,5090
2017-05-11T13:09:15.788Z,5190
2017-05-11T13:10:28.059Z,5140
2017-05-11T13:11:40.609Z,5045
2017-05-11T13:12:53.201Z,5295
2017-05-11T13:14:05.449Z,5195
2017-05-11T13:15:17.111Z,4950
2017-05-11T13:16:29.385Z,5280
2017-05-11T13:17:41.934Z,5345
2017-05-11T13:18:54.498Z,5375
2017-05-11T13:20:07.076Z,5455
2017-05-11T13:21:19.301Z,5125
2017-05-11T13:22:31.894Z,800
2017-05-11T13:23:44.460Z,4805
2017-05-11T13:24:56.718Z,4640
2017-05-11T13:26:09.259Z,4135
2017-05-11T13:27:21.802Z,3690
2017-05-11T13:28:34.343Z,3950
2017-05-11T13:29:46.921Z,4065
2017-05-11T13:30:59.443Z,4165
2017-05-11T13:32:11.731Z,4130
2017-05-11T13:33:24.005Z,4050
2017-05-11T13:34:36.529Z,3930
2017-05-11T13:35:49.130Z,4025
2017-05-11T13:37:01.741Z,3830
2017-05-11T13:38:14.289Z,3855
2017-05-11T13:39:26.514Z,3955
2017-05-11T13:40:38.474Z,3835
2017-05-11T13:41:50.745Z,3655
2017-05-11T13:43:03.003Z,3815
2017-05-11T13:44:15.816Z,3845
2017-05-11T13:45:28.398Z,3790
2017-05-11T13:46:40.662Z,3635
2017-05-11T13:47:53.210Z,3435
2017-05-11T13:49:05.480Z,3735
2017-05-11T13:50:17.754Z,3715
2017-05-11T13:51:30.322Z,3830
2017-05-11T13:52:42.551Z,3655
2017-05-11T13:53:55.133Z,3710
2017-05-11T13:55:07.708Z,3850
2017-05-11T13:56:19.957Z,3840
2017-05-11T13:57:32.546Z,3810
2017-05-11T13:58:45.097Z,3780
2017-05-11T13:59:57.645Z,3885
2017-05-11T14:01:09.943Z,3985
2017-05-11T14:02:22.526Z,4010
2017-05-11T14:03:35.086Z,3985
2017-05-11T14:04:47.682Z,3875
2017-05-11T14:06:00.243Z,3670
2017-05-11T14:07:12.771Z,3570
2017-05-11T14:08:25.335Z,3695
2017-05-11T14:09:37.909Z,3555
2017-05-11T14:10:50.476Z,3400
2017-05-11T14:12:03.035Z,3360
2017-05-11T14:13:15.294Z,3455
2017-05-11T14:14:27.846Z,3305
2017-05-11T14:15:40.370Z,3155
2017-05-11T14:16:52.937Z,3165
2017-05-11T14:18:05.481Z,3260
2017-05-11T14:19:17.730Z,3130
2017-05-11T14:20:30.003Z,2990
2017-05-11T14:21:42.568Z,2865
2017-05-11T14:22:55.117Z,2260
2017-05-11T14:24:07.664Z,2535
2017-05-11T14:25:19.926Z,2930
2017-05-11T14:26:31.897Z,2790
2017-05-11T14:27:44.452Z,2615
2017-05-11T14:28:57.011Z,2460
2017-05-11T14:30:09.561Z,2280
2017-05-11T14:31:21.813Z,2245
2017-05-11T14:32:34.057Z,2565
2017-05-11T14:33:46.605Z,2860
2017-05-11T14:34:58.864Z,1635
2017-05-11T14:36:10.815Z,520
2017-05-11T14:37:23.068Z,460
2017-05-11T14:38:35.868Z,490
2017-05-11T14:39:48.454Z,465
2017-05-11T14:41:01.032Z,400
2017-05-11T14:42:13.595Z,505
2017-05-11T14:43:25.866Z,495
2017-05-11T14:44:38.433Z,385
2017-05-11T14:45:51.015Z,770
2017-05-11T14:47:03.558Z,595
2017-05-11T14:48:15.807Z,395
2017-05-11T14:49:28.392Z,415
2017-05-11T14:50:40.648Z,570
2017-05-11T14:51:53.169Z,540
2017-05-11T14:53:05.729Z,410
2017-05-11T14:54:17.075Z,435
2017-05-11T14:55:29.624Z,550
2017-05-11T14:56:42.224Z,430
2017-05-11T14:57:54.472Z,905
2017-05-11T14:59:07.081Z,420
2017-05-11T15:00:19.365Z,350
2017-05-11T15:01:31.892Z,425
2017-05-11T15:02:44.460Z,495
2017-05-11T15:03:56.675Z,385
2017-05-11T15:05:09.196Z,360
2017-05-11T15:06:21.737Z,345
2017-05-11T15:07:33.998Z,340
2017-05-11T15:08:46.537Z,340
2017-05-11T15:09:59.100Z,335
2017-05-11T15:11:11.654Z,335
2017-05-11T15:12:24.221Z,345
2017-05-11T15:13:36.764Z,365
2017-05-11T15:14:49.308Z,335
2017-05-11T15:16:01.560Z,330
2017-05-11T15:17:14.082Z,325
2017-05-11T15:18:26.352Z,320
2017-05-11T15:19:38.901Z,315
2017-05-11T15:20:51.447Z,315
2017-05-11T15:22:04.004Z,310
2017-05-11T15:23:16.240Z,310
2017-05-11T15:24:28.451Z,315
2017-05-11T15:25:41.005Z,310
2017-05-11T15:26:53.577Z,315
2017-05-11T15:28:06.095Z,310
2017-05-11T15:29:18.022Z,310
2017-05-11T15:30:30.565Z,345
2017-05-11T15:31:43.081Z,360
2017-05-11T15:32:55.623Z,380
2017-05-11T15:34:07.868Z,335
2017-05-11T15:35:20.444Z,320
2017-05-11T15:36:32.665Z,320
2017-05-11T15:37:44.938Z,300
2017-05-11T15:38:57.459Z,300
2017-05-11T15:40:09.681Z,340
2017-05-11T15:41:22.256Z,335
2017-05-11T15:42:34.494Z,340
2017-05-11T15:43:47.061Z,370
2017-05-11T15:44:59.568Z,335
2017-05-11T15:46:12.133Z,320
2017-05-11T15:47:24.696Z,340
2017-05-11T15:48:37.244Z,305
2017-05-11T15:49:49.200Z,320
2017-05-11T15:51:01.440Z,340
2017-05-11T15:52:14.008Z,325
2017-05-11T15:53:26.533Z,300
2017-05-11T15:54:39.050Z,305
2017-05-11T15:55:51.570Z,315
2017-05-11T15:57:03.816Z,305
2017-05-11T15:58:16.058Z,305
2017-05-11T15:59:28.012Z,275
2017-05-11T16:00:40.558Z,270
2017-05-11T16:01:53.080Z,270
2017-05-11T16:03:05.600Z,285
2017-05-11T16:04:17.824Z,290
2017-05-11T16:05:30.395Z,285
2017-05-11T16:06:42.663Z,280
2017-05-11T16:07:55.201Z,265
2017-05-11T16:09:07.753Z,260
2017-05-11T16:10:19.995Z,255
2017-05-11T16:11:32.500Z,255
2017-05-11T16:12:44.774Z,255
2017-05-11T16:13:57.341Z,250
2017-05-11T16:15:09.576Z,250
2017-05-11T16:16:22.104Z,245
2017-05-11T16:17:34.656Z,245
2017-05-11T16:18:47.200Z,240
2017-05-11T16:19:59.767Z,240
2017-05-11T16:21:12.609Z,240
2017-05-11T16:22:24.839Z,240
2017-05-11T16:23:37.384Z,245
2017-05-11T16:24:49.927Z,240
2017-05-11T16:26:02.147Z,235
2017-05-11T16:27:14.694Z,235
2017-05-11T16:28:27.192Z,230
2017-05-11T16:29:39.434Z,230
2017-05-11T16:30:52.001Z,230
2017-05-11T16:32:04.527Z,225
2017-05-11T16:33:16.793Z,220
2017-05-11T16:34:29.321Z,220
2017-05-11T16:35:41.859Z,220